createdAt,value
2019-05-14T00:00:32.140Z,4.22
2019-05-14T00:03:02.314Z,3.90
2019-05-14T00:05:32.177Z,4.03
2019-05-14T00:08:02.293Z,4.05
2019-05-14T00:10:32.169Z,4.62
2019-05-14T00:13:01.679Z,3.80
2019-05-14T00:15:32.223Z,4.03
2019-05-14T00:18:01.274Z,4.12
2019-05-14T00:20:31.407Z,4.20
2019-05-14T00:23:01.407Z,4.17
2019-05-14T00:25:31.339Z,4.22
2019-05-14T00:28:01.329Z,4.60
2019-05-14T00:30:31.613Z,4.33
2019-05-14T00:33:01.205Z,4.20
2019-05-14T00:35:32.039Z,4.25
2019-05-14T00:38:01.320Z,4.35
2019-05-14T00:40:31.483Z,4.10
2019-05-14T00:43:02.436Z,4.22
2019-05-14T00:45:31.297Z,5.42
2019-05-14T00:48:01.554Z,4.15
2019-05-14T00:50:31.705Z,4.42
2019-05-14T00:53:01.993Z,4.40
2019-05-14T00:55:31.634Z,4.30
2019-05-14T00:58:02.375Z,4.20
2019-05-14T01:00:31.322Z,4.87
2019-05-14T01:03:01.900Z,5.30
2019-05-14T01:05:32.242Z,4.42
2019-05-14T01:08:01.894Z,4.80
2019-05-14T01:10:31.326Z,4.55
2019-05-14T01:13:01.147Z,4.50
2019-05-14T01:15:32.173Z,4.33
2019-05-14T01:18:02.223Z,4.50
2019-05-14T01:20:31.942Z,4.70
2019-05-14T01:23:02.309Z,5.17
2019-05-14T01:25:31.728Z,5.22
2019-05-14T01:28:02.200Z,5.05
2019-05-14T01:30:31.973Z,4.78
2019-05-14T01:33:01.721Z,4.90
2019-05-14T01:35:31.640Z,4.90
2019-05-14T01:38:02.590Z,4.87
2019-05-14T01:40:31.548Z,4.75
2019-05-14T01:43:02.400Z,5.40
2019-05-14T01:45:31.670Z,5.20
2019-05-14T01:48:01.287Z,4.87
2019-05-14T01:50:32.142Z,5.00
2019-05-14T01:53:01.267Z,4.62
2019-05-14T01:55:32.287Z,5.10
2019-05-14T01:58:02.393Z,5.10
2019-05-14T02:00:31.415Z,5.80
2019-05-14T02:03:01.878Z,5.00
2019-05-14T02:05:31.097Z,4.80
2019-05-14T02:08:02.580Z,5.20
2019-05-14T02:10:31.650Z,5.62
2019-05-14T02:13:01.979Z,5.25
2019-05-14T02:15:39.037Z,5.33
2019-05-14T02:18:02.285Z,6.12
2019-05-14T02:20:32.104Z,5.80
2019-05-14T02:23:01.530Z,5.30
2019-05-14T02:25:31.959Z,5.78
2019-05-14T02:28:01.442Z,5.60
2019-05-14T02:30:45.835Z,6.08
2019-05-14T02:33:00.661Z,5.62
2019-05-14T02:35:29.897Z,7.15
2019-05-14T02:37:59.595Z,6.67
2019-05-14T02:40:29.448Z,6.35
2019-05-14T02:42:59.267Z,6.47
2019-05-14T02:45:30.429Z,6.60
2019-05-14T02:48:00.306Z,6.75
2019-05-14T02:50:29.696Z,6.35
2019-05-14T02:52:59.804Z,6.95
2019-05-14T02:55:29.885Z,6.90
2019-05-14T02:57:59.807Z,6.10
2019-05-14T03:00:30.074Z,6.35
2019-05-14T03:02:59.892Z,6.55
2019-05-14T03:05:29.514Z,6.25
2019-05-14T03:07:59.788Z,6.12
2019-05-14T03:10:30.217Z,7.17
2019-05-14T03:12:59.326Z,6.53
2019-05-14T03:15:29.105Z,5.83
2019-05-14T03:17:59.878Z,6.28
2019-05-14T03:20:29.096Z,5.47
2019-05-14T03:23:05.134Z,6.65
2019-05-14T03:25:30.170Z,5.95
2019-05-14T03:27:59.897Z,6.92
2019-05-14T03:30:32.362Z,6.03
2019-05-14T03:33:02.954Z,6.30
2019-05-14T03:35:41.157Z,7.08
2019-05-14T03:38:00.534Z,6.30
2019-05-14T03:40:29.591Z,6.28
2019-05-14T03:42:59.917Z,7.17
2019-05-14T03:45:29.946Z,7.62
2019-05-14T03:47:59.148Z,6.62
2019-05-14T03:50:29.753Z,6.67
2019-05-14T03:52:59.372Z,6.55
2019-05-14T03:55:29.318Z,7.30
2019-05-14T03:57:59.447Z,6.55
2019-05-14T04:00:50.281Z,6.72
2019-05-14T04:03:19.973Z,7.62
2019-05-14T04:05:49.984Z,6.95
2019-05-14T04:08:21.279Z,6.40
2019-05-14T04:10:54.312Z,6.85
2019-05-14T04:13:23.592Z,7.50
2019-05-14T04:15:55.505Z,7.05
2019-05-14T04:18:29.078Z,6.58
2019-05-14T04:20:59.572Z,7.22
2019-05-14T04:23:29.826Z,6.78
2019-05-14T04:26:00.632Z,6.83
2019-05-14T04:28:31.105Z,6.70
2019-05-14T04:30:59.990Z,6.45
2019-05-14T04:33:30.413Z,7.45
2019-05-14T04:36:00.218Z,6.53
2019-05-14T04:38:29.973Z,7.42
2019-05-14T04:40:59.983Z,6.45
2019-05-14T04:43:29.605Z,6.53
2019-05-14T04:45:59.193Z,6.70
2019-05-14T04:48:36.487Z,6.47
2019-05-14T04:51:00.400Z,7.40
2019-05-14T04:53:30.882Z,6.80
2019-05-14T04:56:00.251Z,7.42
2019-05-14T04:58:29.952Z,6.40
2019-05-14T05:01:00.471Z,6.42
2019-05-14T05:03:31.535Z,6.90
2019-05-14T05:05:59.322Z,6.70
2019-05-14T05:08:30.391Z,6.58
2019-05-14T05:11:00.022Z,6.67
2019-05-14T05:13:29.419Z,7.12
2019-05-14T05:15:59.405Z,5.78
2019-05-14T05:18:29.384Z,6.00
2019-05-14T05:20:58.572Z,5.78
2019-05-14T05:23:28.226Z,5.87
2019-05-14T05:25:58.543Z,6.03
2019-05-14T05:28:28.321Z,5.80
2019-05-14T05:30:58.626Z,6.25
2019-05-14T05:33:29.413Z,5.45
2019-05-14T05:35:59.309Z,5.35
2019-05-14T05:38:29.309Z,5.47
2019-05-14T05:41:00.201Z,5.17
2019-05-14T05:43:28.736Z,5.17
2019-05-14T05:45:59.259Z,5.30
2019-05-14T05:48:28.523Z,6.50
2019-05-14T05:50:59.063Z,5.78
2019-05-14T05:53:28.701Z,5.55
2019-05-14T05:55:59.316Z,5.40
2019-05-14T05:58:29.913Z,5.87
2019-05-14T06:00:59.020Z,5.35
2019-05-14T06:03:30.031Z,6.05
2019-05-14T06:05:59.491Z,5.75
2019-05-14T06:08:28.341Z,5.50
2019-05-14T06:10:59.122Z,5.60
2019-05-14T06:13:28.677Z,5.70
2019-05-14T06:15:59.103Z,5.33
2019-05-14T06:18:28.571Z,5.80
2019-05-14T06:20:58.595Z,5.65
2019-05-14T06:23:28.435Z,5.85
2019-05-14T06:25:59.793Z,5.17
2019-05-14T06:28:32.910Z,5.28
2019-05-14T06:30:59.043Z,5.50
2019-05-14T06:33:28.613Z,5.30
2019-05-14T06:35:59.123Z,5.60
2019-05-14T06:38:29.519Z,5.67
2019-05-14T06:40:59.321Z,5.95
2019-05-14T06:43:28.821Z,5.75
2019-05-14T06:45:58.525Z,5.60
2019-05-14T06:48:33.613Z,5.97
2019-05-14T06:50:58.328Z,6.05
2019-05-14T06:53:29.058Z,6.47
2019-05-14T06:55:58.724Z,5.28
2019-05-14T06:58:29.837Z,6.08
2019-05-14T07:00:58.795Z,5.75
2019-05-14T07:03:28.141Z,6.20
2019-05-14T07:05:59.354Z,5.55
2019-05-14T07:08:28.467Z,5.75
2019-05-14T07:10:59.189Z,6.33
2019-05-14T07:13:29.175Z,5.60
2019-05-14T07:15:58.544Z,6.30
2019-05-14T07:18:30.233Z,5.72
2019-05-14T07:20:58.853Z,6.30
2019-05-14T07:23:28.906Z,5.92
2019-05-14T07:25:58.948Z,5.67
2019-05-14T07:28:28.907Z,6.15
2019-05-14T07:30:59.249Z,5.55
2019-05-14T07:33:29.376Z,5.85
2019-05-14T07:35:59.438Z,5.55
2019-05-14T07:38:28.564Z,6.45
2019-05-14T07:40:58.539Z,5.65
2019-05-14T07:43:28.661Z,5.65
2019-05-14T07:45:58.234Z,6.10
2019-05-14T07:48:28.784Z,6.40
2019-05-14T07:50:59.915Z,6.30
2019-05-14T07:53:36.036Z,6.22
2019-05-14T07:55:59.190Z,7.20
2019-05-14T07:58:28.343Z,6.00
2019-05-14T08:00:58.645Z,6.30
2019-05-14T08:03:28.556Z,5.90
2019-05-14T08:05:58.897Z,5.67
2019-05-14T08:08:29.263Z,5.83
2019-05-14T08:10:59.209Z,6.10
2019-05-14T08:13:28.474Z,6.40
2019-05-14T08:15:58.399Z,5.55
2019-05-14T08:18:29.104Z,5.58
2019-05-14T08:20:59.313Z,5.65
2019-05-14T08:23:28.191Z,5.65
2019-05-14T08:25:58.720Z,6.08
2019-05-14T08:28:28.990Z,5.95
2019-05-14T08:30:58.455Z,6.22
2019-05-14T08:33:29.089Z,5.78
2019-05-14T08:35:58.239Z,6.00
2019-05-14T08:38:28.481Z,5.70
2019-05-14T08:40:58.930Z,5.95
2019-05-14T08:43:29.121Z,6.08
2019-05-14T08:45:58.761Z,5.62
2019-05-14T08:48:29.670Z,6.12
2019-05-14T08:50:58.730Z,5.97
2019-05-14T08:53:28.803Z,5.62
2019-05-14T08:55:58.798Z,5.25
2019-05-14T08:58:30.077Z,5.12
2019-05-14T09:00:58.767Z,5.37
2019-05-14T09:03:28.829Z,5.70
2019-05-14T09:06:00.580Z,6.22
2019-05-14T09:08:28.488Z,5.17
2019-05-14T09:10:59.019Z,4.92
2019-05-14T09:13:28.959Z,5.60
2019-05-14T09:15:58.266Z,5.20
2019-05-14T09:18:29.093Z,4.92
2019-05-14T09:20:58.174Z,4.80
2019-05-14T09:23:28.689Z,5.30
2019-05-14T09:25:58.804Z,4.70
2019-05-14T09:28:28.466Z,4.70
2019-05-14T09:30:59.606Z,5.22
2019-05-14T09:33:29.624Z,5.17
2019-05-14T09:36:13.593Z,5.40
2019-05-14T09:38:41.640Z,5.00
2019-05-14T09:41:08.258Z,5.17
2019-05-14T09:43:29.186Z,4.60
2019-05-14T09:45:58.782Z,4.90
2019-05-14T09:48:28.622Z,5.60
2019-05-14T09:50:58.642Z,4.92
2019-05-14T09:53:28.878Z,5.22
2019-05-14T09:55:58.392Z,5.08
2019-05-14T09:58:28.251Z,4.67
2019-05-14T10:00:59.121Z,4.80
2019-05-14T10:03:27.366Z,4.95
2019-05-14T10:05:58.740Z,5.40
2019-05-14T10:08:28.413Z,4.80
2019-05-14T10:11:00.039Z,4.60
2019-05-14T10:13:28.190Z,4.90
2019-05-14T10:15:58.879Z,5.12
2019-05-14T10:18:28.505Z,4.85
2019-05-14T10:20:59.054Z,4.97
2019-05-14T10:23:28.373Z,4.70
2019-05-14T10:25:58.084Z,3.92
2019-05-14T10:28:28.882Z,4.20
2019-05-14T10:30:59.978Z,3.72
2019-05-14T10:33:28.822Z,4.10
2019-05-14T10:35:58.859Z,4.10
2019-05-14T10:38:29.609Z,3.90
2019-05-14T10:40:58.396Z,4.03
2019-05-14T10:43:28.892Z,4.40
2019-05-14T10:45:58.108Z,4.05
2019-05-14T10:48:28.963Z,4.50
2019-05-14T10:51:02.949Z,3.95
2019-05-14T10:53:28.970Z,4.08
2019-05-14T10:55:58.392Z,4.22
2019-05-14T10:58:29.050Z,4.35
2019-05-14T11:00:58.921Z,3.60
2019-05-14T11:03:30.093Z,3.50
2019-05-14T11:05:58.752Z,4.10
2019-05-14T11:08:29.668Z,4.40
2019-05-14T11:11:03.780Z,4.28
2019-05-14T11:13:29.195Z,4.55
2019-05-14T11:15:59.599Z,3.92
2019-05-14T11:18:29.066Z,4.00
2019-05-14T11:21:18.049Z,4.40
2019-05-14T11:23:29.850Z,4.10
2019-05-14T11:25:58.756Z,4.20
2019-05-14T11:28:28.552Z,4.22
2019-05-14T11:30:57.498Z,4.60
2019-05-14T11:33:26.086Z,4.20
2019-05-14T11:35:54.646Z,4.22
2019-05-14T11:38:33.797Z,4.30
2019-05-14T11:40:53.542Z,4.22
2019-05-14T11:43:22.125Z,4.10
2019-05-14T11:45:50.841Z,4.08
2019-05-14T11:48:19.563Z,4.55
2019-05-14T11:50:49.224Z,4.58
2019-05-14T11:53:20.064Z,4.45
2019-05-14T11:55:50.282Z,4.25
2019-05-14T11:58:20.866Z,4.53
2019-05-14T12:00:49.250Z,4.55
2019-05-14T12:03:19.674Z,4.70
2019-05-14T12:05:49.533Z,4.50
2019-05-14T12:08:18.742Z,4.40
2019-05-14T12:10:47.407Z,4.42
2019-05-14T12:13:15.995Z,4.50
2019-05-14T12:15:44.570Z,4.70
2019-05-14T12:18:13.171Z,4.12
2019-05-14T12:20:41.740Z,3.72
2019-05-14T12:23:10.337Z,4.28
2019-05-14T12:25:38.918Z,4.28
2019-05-14T12:28:13.245Z,3.95
2019-05-14T12:30:39.456Z,4.15
2019-05-14T12:33:07.952Z,3.85
2019-05-14T12:35:39.962Z,3.67
2019-05-14T12:38:06.937Z,3.47
2019-05-14T12:40:38.112Z,3.83
2019-05-14T12:43:05.861Z,3.70
2019-05-14T12:45:34.424Z,4.30
2019-05-14T12:48:03.061Z,3.90
2019-05-14T12:50:31.620Z,3.77
2019-05-14T12:53:00.185Z,3.92
2019-05-14T12:55:28.839Z,3.75
2019-05-14T12:57:59.715Z,3.62
2019-05-14T13:00:27.708Z,3.70
2019-05-14T13:02:58.518Z,4.17
2019-05-14T13:05:29.050Z,3.67
2019-05-14T13:07:57.979Z,3.52
2019-05-14T13:10:29.231Z,3.72
2019-05-14T13:12:58.818Z,3.60
2019-05-14T13:15:28.683Z,3.83
2019-05-14T13:17:57.519Z,3.90
2019-05-14T13:20:26.087Z,4.35
2019-05-14T13:22:54.675Z,3.60
2019-05-14T13:25:23.247Z,3.60
2019-05-14T13:27:51.790Z,3.70
2019-05-14T13:30:20.733Z,3.80
2019-05-14T13:32:49.343Z,3.77
2019-05-14T13:35:19.664Z,4.40
2019-05-14T13:37:49.013Z,5.53
2019-05-14T13:40:21.279Z,4.30
2019-05-14T13:42:49.179Z,3.90
2019-05-14T13:45:19.148Z,4.15
2019-05-14T13:47:48.950Z,3.72
2019-05-14T13:50:19.654Z,3.60
2019-05-14T13:53:02.038Z,3.72
2019-05-14T13:55:19.438Z,4.20
2019-05-14T13:57:48.755Z,3.70
2019-05-14T14:00:19.974Z,3.98
2019-05-14T14:02:48.475Z,3.50
2019-05-14T14:05:19.879Z,3.70
2019-05-14T14:07:48.611Z,2.90
2019-05-14T14:10:17.532Z,3.12
2019-05-14T14:12:49.292Z,3.70
2019-05-14T14:15:16.724Z,3.60
2019-05-14T14:17:45.366Z,3.60
2019-05-14T14:20:14.186Z,3.58
2019-05-14T14:22:42.754Z,3.55
2019-05-14T14:25:11.635Z,3.55
2019-05-14T14:27:41.182Z,3.60
2019-05-14T14:30:10.973Z,3.30
2019-05-14T14:32:40.511Z,3.70
2019-05-14T14:35:09.868Z,3.85
2019-05-14T14:37:39.617Z,3.20
2019-05-14T14:40:10.724Z,3.83
2019-05-14T14:42:40.474Z,3.55
2019-05-14T14:45:10.097Z,3.92
2019-05-14T14:47:39.466Z,3.95
2019-05-14T14:50:09.155Z,3.50
2019-05-14T14:52:37.767Z,3.80
2019-05-14T14:55:07.230Z,3.20
2019-05-14T14:57:35.987Z,3.70
2019-05-14T15:00:09.557Z,3.72
2019-05-14T15:02:36.845Z,4.20
2019-05-14T15:05:13.830Z,3.90
2019-05-14T15:07:40.741Z,3.50
2019-05-14T15:10:09.994Z,4.25
2019-05-14T15:12:39.931Z,3.58
2019-05-14T15:15:22.735Z,3.40
2019-05-14T15:17:51.300Z,3.35
2019-05-14T15:20:19.885Z,3.50
2019-05-14T15:22:49.391Z,3.90
2019-05-14T15:25:18.678Z,3.47
2019-05-14T15:27:49.084Z,4.60
2019-05-14T15:30:18.215Z,3.60
2019-05-14T15:32:51.037Z,3.30
2019-05-14T15:35:18.985Z,3.62
2019-05-14T15:37:48.791Z,3.83
2019-05-14T15:40:22.037Z,4.70
2019-05-14T15:42:49.783Z,3.55
2019-05-14T15:45:18.349Z,4.28
2019-05-14T15:47:48.570Z,3.90
2019-05-14T15:50:19.984Z,3.27
2019-05-14T15:52:48.745Z,3.47
2019-05-14T15:55:18.321Z,3.20
2019-05-14T15:57:47.174Z,3.47
2019-05-14T16:00:16.225Z,3.72
2019-05-14T16:02:44.806Z,3.50
2019-05-14T16:05:13.590Z,3.10
2019-05-14T16:07:42.161Z,3.37
2019-05-14T16:10:11.257Z,3.70
2019-05-14T16:12:40.316Z,3.85
2019-05-14T16:15:10.077Z,3.87
2019-05-14T16:17:47.543Z,3.60
2019-05-14T16:20:09.704Z,4.05
2019-05-14T16:22:39.890Z,3.83
2019-05-14T16:25:09.987Z,3.25
2019-05-14T16:27:39.542Z,3.20
2019-05-14T16:30:10.181Z,3.40
2019-05-14T16:32:39.720Z,3.75
2019-05-14T16:35:09.333Z,3.50
2019-05-14T16:37:39.204Z,3.77
2019-05-14T16:40:08.835Z,3.40
2019-05-14T16:42:39.542Z,3.25
2019-05-14T16:45:08.853Z,3.17
2019-05-14T16:47:39.934Z,3.10
2019-05-14T16:50:09.868Z,3.30
2019-05-14T16:52:42.426Z,3.62
2019-05-14T16:55:22.568Z,3.80
2019-05-14T16:57:39.204Z,3.20
2019-05-14T17:00:09.833Z,3.10
2019-05-14T17:02:38.857Z,3.47
2019-05-14T17:05:09.147Z,3.22
2019-05-14T17:07:38.578Z,3.33
2019-05-14T17:10:08.484Z,3.20
2019-05-14T17:12:51.713Z,4.28
2019-05-14T17:15:09.673Z,3.30
2019-05-14T17:17:38.540Z,3.00
2019-05-14T17:20:08.556Z,2.98
2019-05-14T17:22:39.657Z,3.27
2019-05-14T17:25:09.376Z,2.90
2019-05-14T17:27:39.341Z,3.47
2019-05-14T17:30:09.053Z,3.92
2019-05-14T17:32:39.109Z,3.10
2019-05-14T17:35:08.589Z,3.83
2019-05-14T17:37:39.586Z,3.25
2019-05-14T17:40:09.406Z,3.10
2019-05-14T17:42:39.353Z,3.10
2019-05-14T17:45:09.709Z,3.25
2019-05-14T17:47:39.225Z,3.80
2019-05-14T17:50:08.983Z,3.40
2019-05-14T17:52:42.904Z,3.45
2019-05-14T17:55:12.218Z,3.47
2019-05-14T17:57:46.717Z,3.15
2019-05-14T18:00:11.019Z,3.15
2019-05-14T18:02:39.630Z,3.33
2019-05-14T18:05:09.738Z,3.60
2019-05-14T18:07:38.553Z,3.27
2019-05-14T18:10:08.863Z,3.45
2019-05-14T18:12:39.698Z,3.30
2019-05-14T18:15:08.911Z,3.33
2019-05-14T18:17:39.289Z,3.30
2019-05-14T18:20:08.660Z,3.30
2019-05-14T18:22:42.080Z,3.80
2019-05-14T18:25:08.210Z,3.60
2019-05-14T18:27:39.301Z,3.75
2019-05-14T18:30:09.367Z,3.30
2019-05-14T18:32:39.151Z,3.27
2019-05-14T18:35:09.392Z,3.27
2019-05-14T18:37:39.102Z,3.27
2019-05-14T18:40:09.247Z,3.77
2019-05-14T18:42:39.432Z,2.98
2019-05-14T18:45:09.677Z,3.20
2019-05-14T18:47:40.190Z,2.92
2019-05-14T18:50:10.499Z,3.05
2019-05-14T18:52:40.773Z,3.27
2019-05-14T18:56:19.398Z,3.30
2019-05-14T18:58:38.643Z,3.12
2019-05-14T19:01:08.587Z,3.40
2019-05-14T19:03:39.961Z,3.50
2019-05-14T19:06:10.156Z,3.40
2019-05-14T19:08:41.465Z,3.45
2019-05-14T19:11:12.880Z,4.20
2019-05-14T19:13:45.241Z,3.50
2019-05-14T19:16:16.579Z,3.20
2019-05-14T19:18:48.901Z,3.50
2019-05-14T19:21:20.983Z,3.30
2019-05-14T19:23:52.605Z,3.37
2019-05-14T19:26:33.437Z,3.65
2019-05-14T19:28:58.165Z,4.15
2019-05-14T19:31:30.160Z,3.90
2019-05-14T19:34:02.059Z,3.77
2019-05-14T19:37:29.058Z,3.75
2019-05-14T19:40:01.403Z,3.67
2019-05-14T19:42:33.269Z,3.60
2019-05-14T19:45:05.032Z,3.75
2019-05-14T19:47:36.685Z,4.03
2019-05-14T19:50:11.706Z,3.65
2019-05-14T19:52:43.532Z,3.60
2019-05-14T19:55:15.672Z,4.20
2019-05-14T19:58:40.367Z,3.90
2019-05-14T20:01:11.178Z,3.90
2019-05-14T20:03:41.620Z,4.42
2019-05-14T20:06:12.056Z,3.90
2019-05-14T20:08:42.176Z,3.80
2019-05-14T20:11:12.393Z,4.10
2019-05-14T20:13:42.691Z,3.98
2019-05-14T20:16:13.097Z,3.70
2019-05-14T20:18:45.969Z,4.00
2019-05-14T20:21:16.478Z,4.87
2019-05-14T20:23:48.074Z,4.70
2019-05-14T20:26:18.127Z,4.00
2019-05-14T20:28:48.407Z,3.90
2019-05-14T20:31:18.162Z,3.90
2019-05-14T20:33:48.546Z,3.70
2019-05-14T20:36:18.806Z,4.20
2019-05-14T20:38:48.264Z,5.15
2019-05-14T20:41:18.425Z,3.90
2019-05-14T20:43:48.106Z,4.05
2019-05-14T20:46:18.668Z,4.50
2019-05-14T20:48:48.781Z,4.15
2019-05-14T20:51:18.697Z,3.98
2019-05-14T20:53:48.918Z,4.20
2019-05-14T20:56:19.185Z,4.80
2019-05-14T20:58:48.246Z,4.10
2019-05-14T21:01:18.442Z,4.05
2019-05-14T21:03:48.304Z,4.28
2019-05-14T21:06:18.786Z,3.83
2019-05-14T21:08:48.977Z,4.15
2019-05-14T21:11:19.043Z,3.98
2019-05-14T21:13:50.031Z,4.58
2019-05-14T21:16:18.329Z,3.80
2019-05-14T21:18:48.779Z,4.40
2019-05-14T21:21:18.516Z,3.92
2019-05-14T21:23:48.975Z,3.98
2019-05-14T21:26:19.407Z,4.40
2019-05-14T21:28:48.698Z,4.40
2019-05-14T21:31:18.175Z,4.60
2019-05-14T21:33:48.808Z,4.15
2019-05-14T21:36:19.411Z,4.17
2019-05-14T21:38:49.122Z,4.22
2019-05-14T21:41:20.141Z,4.08
2019-05-14T21:43:49.281Z,4.20
2019-05-14T21:46:19.438Z,4.67
2019-05-14T21:48:48.108Z,4.80
2019-05-14T21:51:18.036Z,4.47
2019-05-14T21:53:48.281Z,4.17
2019-05-14T21:56:21.301Z,4.37
2019-05-14T21:58:48.120Z,4.40
2019-05-14T22:01:18.775Z,4.80
2019-05-14T22:03:48.535Z,4.30
2019-05-14T22:06:18.278Z,5.17
2019-05-14T22:08:48.752Z,4.70
2019-05-14T22:11:18.798Z,4.10
2019-05-14T22:13:49.620Z,4.53
2019-05-14T22:16:18.962Z,4.65
2019-05-14T22:18:48.383Z,4.60
2019-05-14T22:21:18.379Z,4.67
2019-05-14T22:23:48.195Z,5.35
2019-05-14T22:26:18.624Z,4.65
2019-05-14T22:28:47.894Z,4.45
2019-05-14T22:31:19.085Z,4.62
2019-05-14T22:33:46.955Z,5.17
2019-05-14T22:36:20.966Z,4.75
2019-05-14T22:38:48.104Z,4.87
2019-05-14T22:41:18.333Z,5.78
2019-05-14T22:43:48.761Z,5.12
2019-05-14T22:46:18.110Z,5.30
2019-05-14T22:48:51.279Z,5.08
2019-05-14T22:51:18.321Z,5.40
2019-05-14T22:53:49.289Z,5.28
2019-05-14T22:56:17.390Z,5.53
2019-05-14T22:58:45.951Z,5.95
2019-05-14T23:01:15.320Z,5.28
2019-05-14T23:03:44.019Z,5.97
2019-05-14T23:06:12.585Z,5.33
2019-05-14T23:08:41.187Z,5.30
2019-05-14T23:11:09.687Z,5.40
2019-05-14T23:13:39.162Z,5.30
2019-05-14T23:16:08.316Z,4.83
2019-05-14T23:18:38.008Z,5.37
2019-05-14T23:21:08.816Z,5.87
2019-05-14T23:23:39.195Z,5.12
2019-05-14T23:26:08.613Z,4.95
2019-05-14T23:28:44.586Z,5.33
2019-05-14T23:31:08.449Z,5.15
2019-05-14T23:33:38.893Z,5.12
2019-05-14T23:36:08.788Z,4.95
2019-05-14T23:38:38.923Z,5.85
2019-05-14T23:41:08.680Z,4.92
2019-05-14T23:43:39.182Z,4.80
2019-05-14T23:46:09.377Z,5.00
2019-05-14T23:48:39.134Z,5.10
2019-05-14T23:51:08.332Z,5.08
2019-05-14T23:53:39.252Z,5.00
2019-05-14T23:56:08.684Z,5.50
2019-05-14T23:58:37.501Z,5.20
